sensor_id;sensor_type;location;lat;lon;timestamp;P1;durP1;ratioP1;P2;durP2;ratioP2
19599;SDS011;9947;57.722;12.012;2022-08-21T00:00:55;11.73;;;4.40;;
19599;SDS011;9947;57.722;12.012;2022-08-21T00:03:22;9.30;;;4.70;;
19599;SDS011;9947;57.722;12.012;2022-08-21T00:05:49;11.80;;;4.40;;
19599;SDS011;9947;57.722;12.012;2022-08-21T00:08:20;7.33;;;3.53;;
19599;SDS011;9947;57.722;12.012;2022-08-21T00:10:47;11.60;;;3.90;;
19599;SDS011;9947;57.722;12.012;2022-08-21T00:13:15;10.43;;;4.17;;
19599;SDS011;9947;57.722;12.012;2022-08-21T00:15:43;8.47;;;4.47;;
19599;SDS011;9947;57.722;12.012;2022-08-21T00:18:09;10.50;;;4.20;;
19599;SDS011;9947;57.722;12.012;2022-08-21T00:20:37;7.63;;;4.07;;
19599;SDS011;9947;57.722;12.012;2022-08-21T00:23:05;11.60;;;4.20;;
19599;SDS011;9947;57.722;12.012;2022-08-21T00:25:34;8.33;;;4.17;;
19599;SDS011;9947;57.722;12.012;2022-08-21T00:28:01;11.20;;;4.17;;
19599;SDS011;9947;57.722;12.012;2022-08-21T00:30:29;13.80;;;4.30;;
19599;SDS011;9947;57.722;12.012;2022-08-21T00:32:57;11.07;;;4.10;;
19599;SDS011;9947;57.722;12.012;2022-08-21T00:35:26;8.40;;;4.37;;
19599;SDS011;9947;57.722;12.012;2022-08-21T00:37:57;8.70;;;3.83;;
19599;SDS011;9947;57.722;12.012;2022-08-21T00:40:25;9.97;;;4.40;;
19599;SDS011;9947;57.722;12.012;2022-08-21T00:42:57;10.47;;;4.63;;
19599;SDS011;9947;57.722;12.012;2022-08-21T00:45:25;10.57;;;3.83;;
19599;SDS011;9947;57.722;12.012;2022-08-21T00:47:52;11.93;;;4.30;;
19599;SDS011;9947;57.722;12.012;2022-08-21T00:50:21;7.60;;;4.00;;
19599;SDS011;9947;57.722;12.012;2022-08-21T00:52:51;8.57;;;4.80;;
19599;SDS011;9947;57.722;12.012;2022-08-21T00:55:19;16.27;;;4.30;;
19599;SDS011;9947;57.722;12.012;2022-08-21T00:57:47;14.13;;;4.93;;
19599;SDS011;9947;57.722;12.012;2022-08-21T01:00:20;11.40;;;4.23;;
19599;SDS011;9947;57.722;12.012;2022-08-21T01:02:51;13.43;;;4.33;;
19599;SDS011;9947;57.722;12.012;2022-08-21T01:05:19;10.00;;;4.70;;
19599;SDS011;9947;57.722;12.012;2022-08-21T01:07:48;8.07;;;4.23;;
19599;SDS011;9947;57.722;12.012;2022-08-21T01:10:15;10.47;;;4.33;;
19599;SDS011;9947;57.722;12.012;2022-08-21T01:12:42;9.87;;;4.17;;
19599;SDS011;9947;57.722;12.012;2022-08-21T01:15:09;12.63;;;4.93;;
19599;SDS011;9947;57.722;12.012;2022-08-21T01:17:43;7.97;;;4.17;;
19599;SDS011;9947;57.722;12.012;2022-08-21T01:20:10;12.83;;;3.93;;
19599;SDS011;9947;57.722;12.012;2022-08-21T01:22:39;12.17;;;4.50;;
19599;SDS011;9947;57.722;12.012;2022-08-21T01:25:08;8.87;;;4.27;;
19599;SDS011;9947;57.722;12.012;2022-08-21T01:27:36;9.60;;;4.30;;
19599;SDS011;9947;57.722;12.012;2022-08-21T01:30:08;9.70;;;4.67;;
19599;SDS011;9947;57.722;12.012;2022-08-21T01:32:37;12.30;;;4.43;;
19599;SDS011;9947;57.722;12.012;2022-08-21T01:35:04;12.60;;;5.10;;
19599;SDS011;9947;57.722;12.012;2022-08-21T01:37:32;8.43;;;4.10;;
19599;SDS011;9947;57.722;12.012;2022-08-21T01:40:01;6.90;;;3.80;;
19599;SDS011;9947;57.722;12.012;2022-08-21T01:42:29;10.23;;;4.10;;
19599;SDS011;9947;57.722;12.012;2022-08-21T01:44:59;11.27;;;4.33;;
19599;SDS011;9947;57.722;12.012;2022-08-21T01:47:26;10.43;;;4.80;;
19599;SDS011;9947;57.722;12.012;2022-08-21T01:49:53;10.47;;;4.60;;
19599;SDS011;9947;57.722;12.012;2022-08-21T01:52:20;10.30;;;4.03;;
19599;SDS011;9947;57.722;12.012;2022-08-21T01:54:47;7.83;;;4.27;;
19599;SDS011;9947;57.722;12.012;2022-08-21T01:57:15;7.60;;;4.10;;
19599;SDS011;9947;57.722;12.012;2022-08-21T01:59:42;9.30;;;4.40;;
19599;SDS011;9947;57.722;12.012;2022-08-21T02:02:08;11.47;;;4.57;;
19599;SDS011;9947;57.722;12.012;2022-08-21T02:04:35;8.80;;;4.23;;
19599;SDS011;9947;57.722;12.012;2022-08-21T02:07:02;7.13;;;4.17;;
19599;SDS011;9947;57.722;12.012;2022-08-21T02:09:29;10.03;;;3.87;;
19599;SDS011;9947;57.722;12.012;2022-08-21T02:11:56;9.03;;;4.30;;
19599;SDS011;9947;57.722;12.012;2022-08-21T02:14:24;9.00;;;4.53;;
19599;SDS011;9947;57.722;12.012;2022-08-21T02:16:51;10.07;;;4.20;;
19599;SDS011;9947;57.722;12.012;2022-08-21T02:19:18;6.70;;;3.87;;
19599;SDS011;9947;57.722;12.012;2022-08-21T02:21:45;8.00;;;3.77;;
19599;SDS011;9947;57.722;12.012;2022-08-21T02:24:12;8.43;;;4.33;;
19599;SDS011;9947;57.722;12.012;2022-08-21T02:26:39;7.70;;;4.03;;
19599;SDS011;9947;57.722;12.012;2022-08-21T02:29:05;7.30;;;4.30;;
19599;SDS011;9947;57.722;12.012;2022-08-21T02:31:36;7.43;;;4.13;;
19599;SDS011;9947;57.722;12.012;2022-08-21T02:34:03;9.33;;;4.17;;
19599;SDS011;9947;57.722;12.012;2022-08-21T02:36:30;8.53;;;4.47;;
19599;SDS011;9947;57.722;12.012;2022-08-21T02:38:57;8.40;;;4.37;;
19599;SDS011;9947;57.722;12.012;2022-08-21T02:41:24;6.13;;;3.97;;
19599;SDS011;9947;57.722;12.012;2022-08-21T02:43:51;11.83;;;4.67;;
19599;SDS011;9947;57.722;12.012;2022-08-21T02:46:18;10.37;;;4.53;;
19599;SDS011;9947;57.722;12.012;2022-08-21T02:48:47;13.37;;;5.13;;
19599;SDS011;9947;57.722;12.012;2022-08-21T02:51:15;6.97;;;4.40;;
19599;SDS011;9947;57.722;12.012;2022-08-21T02:53:45;6.57;;;4.30;;
19599;SDS011;9947;57.722;12.012;2022-08-21T02:56:15;8.03;;;3.90;;
19599;SDS011;9947;57.722;12.012;2022-08-21T02:58:44;9.17;;;4.63;;
19599;SDS011;9947;57.722;12.012;2022-08-21T03:01:13;8.33;;;4.43;;
19599;SDS011;9947;57.722;12.012;2022-08-21T03:03:45;13.70;;;4.47;;
19599;SDS011;9947;57.722;12.012;2022-08-21T03:06:16;9.77;;;4.80;;
19599;SDS011;9947;57.722;12.012;2022-08-21T03:08:44;8.97;;;4.57;;
19599;SDS011;9947;57.722;12.012;2022-08-21T03:11:12;10.10;;;4.70;;
19599;SDS011;9947;57.722;12.012;2022-08-21T03:13:39;8.07;;;4.27;;
19599;SDS011;9947;57.722;12.012;2022-08-21T03:16:06;9.50;;;4.47;;
19599;SDS011;9947;57.722;12.012;2022-08-21T03:18:34;13.83;;;4.70;;
19599;SDS011;9947;57.722;12.012;2022-08-21T03:21:01;8.10;;;4.73;;
19599;SDS011;9947;57.722;12.012;2022-08-21T03:23:30;7.33;;;4.30;;
19599;SDS011;9947;57.722;12.012;2022-08-21T03:25:57;10.67;;;5.40;;
19599;SDS011;9947;57.722;12.012;2022-08-21T03:28:24;9.20;;;4.50;;
19599;SDS011;9947;57.722;12.012;2022-08-21T03:30:51;7.53;;;4.13;;
19599;SDS011;9947;57.722;12.012;2022-08-21T03:33:19;12.87;;;4.63;;
19599;SDS011;9947;57.722;12.012;2022-08-21T03:35:48;11.33;;;4.90;;
19599;SDS011;9947;57.722;12.012;2022-08-21T03:38:20;12.73;;;4.40;;
19599;SDS011;9947;57.722;12.012;2022-08-21T03:40:48;11.50;;;4.70;;
19599;SDS011;9947;57.722;12.012;2022-08-21T03:43:15;9.90;;;4.57;;
19599;SDS011;9947;57.722;12.012;2022-08-21T03:45:42;7.13;;;4.20;;
19599;SDS011;9947;57.722;12.012;2022-08-21T03:48:08;9.60;;;4.33;;
19599;SDS011;9947;57.722;12.012;2022-08-21T03:50:36;7.50;;;4.27;;
19599;SDS011;9947;57.722;12.012;2022-08-21T03:53:07;9.07;;;4.37;;
19599;SDS011;9947;57.722;12.012;2022-08-21T03:55:34;9.57;;;4.73;;
19599;SDS011;9947;57.722;12.012;2022-08-21T03:58:04;6.57;;;4.80;;
19599;SDS011;9947;57.722;12.012;2022-08-21T04:00:31;7.57;;;4.47;;
19599;SDS011;9947;57.722;12.012;2022-08-21T04:02:59;8.03;;;5.17;;
19599;SDS011;9947;57.722;12.012;2022-08-21T04:05:26;7.93;;;4.63;;
19599;SDS011;9947;57.722;12.012;2022-08-21T04:07:56;7.70;;;4.93;;
19599;SDS011;9947;57.722;12.012;2022-08-21T04:10:24;8.20;;;4.40;;
19599;SDS011;9947;57.722;12.012;2022-08-21T04:12:53;12.53;;;5.00;;
19599;SDS011;9947;57.722;12.012;2022-08-21T04:15:22;11.93;;;4.67;;
19599;SDS011;9947;57.722;12.012;2022-08-21T04:17:50;7.40;;;4.77;;
19599;SDS011;9947;57.722;12.012;2022-08-21T04:20:18;9.80;;;4.50;;
19599;SDS011;9947;57.722;12.012;2022-08-21T04:22:46;9.63;;;4.30;;
19599;SDS011;9947;57.722;12.012;2022-08-21T04:25:15;13.33;;;4.30;;
19599;SDS011;9947;57.722;12.012;2022-08-21T04:27:43;6.63;;;4.10;;
19599;SDS011;9947;57.722;12.012;2022-08-21T04:30:11;8.30;;;4.20;;
19599;SDS011;9947;57.722;12.012;2022-08-21T04:32:41;8.33;;;4.80;;
19599;SDS011;9947;57.722;12.012;2022-08-21T04:35:09;10.90;;;3.90;;
19599;SDS011;9947;57.722;12.012;2022-08-21T04:37:37;7.80;;;4.03;;
19599;SDS011;9947;57.722;12.012;2022-08-21T04:40:04;7.77;;;3.70;;
19599;SDS011;9947;57.722;12.012;2022-08-21T04:42:40;7.67;;;3.70;;
19599;SDS011;9947;57.722;12.012;2022-08-21T04:45:09;7.93;;;3.63;;
19599;SDS011;9947;57.722;12.012;2022-08-21T04:47:36;6.17;;;3.90;;
19599;SDS011;9947;57.722;12.012;2022-08-21T04:50:04;10.80;;;4.00;;
19599;SDS011;9947;57.722;12.012;2022-08-21T04:52:32;5.90;;;3.60;;
19599;SDS011;9947;57.722;12.012;2022-08-21T04:54:58;7.63;;;3.40;;
19599;SDS011;9947;57.722;12.012;2022-08-21T04:57:27;5.90;;;3.40;;
19599;SDS011;9947;57.722;12.012;2022-08-21T04:59:54;6.97;;;3.70;;
19599;SDS011;9947;57.722;12.012;2022-08-21T05:02:21;5.73;;;3.37;;
19599;SDS011;9947;57.722;12.012;2022-08-21T05:04:48;6.13;;;3.40;;
19599;SDS011;9947;57.722;12.012;2022-08-21T05:07:22;7.53;;;3.33;;
19599;SDS011;9947;57.722;12.012;2022-08-21T05:09:51;6.97;;;3.57;;
19599;SDS011;9947;57.722;12.012;2022-08-21T05:12:18;7.57;;;3.27;;
19599;SDS011;9947;57.722;12.012;2022-08-21T05:14:45;7.43;;;3.67;;
19599;SDS011;9947;57.722;12.012;2022-08-21T05:17:12;9.43;;;3.73;;
19599;SDS011;9947;57.722;12.012;2022-08-21T05:19:39;4.37;;;2.90;;
19599;SDS011;9947;57.722;12.012;2022-08-21T05:22:06;6.83;;;2.90;;
19599;SDS011;9947;57.722;12.012;2022-08-21T05:24:35;5.37;;;2.87;;
19599;SDS011;9947;57.722;12.012;2022-08-21T05:27:03;3.50;;;2.10;;
19599;SDS011;9947;57.722;12.012;2022-08-21T05:29:32;4.90;;;2.43;;
19599;SDS011;9947;57.722;12.012;2022-08-21T05:31:59;4.40;;;2.17;;
19599;SDS011;9947;57.722;12.012;2022-08-21T05:34:26;3.77;;;2.00;;
19599;SDS011;9947;57.722;12.012;2022-08-21T05:36:52;3.87;;;2.10;;
19599;SDS011;9947;57.722;12.012;2022-08-21T05:39:19;3.47;;;2.20;;
19599;SDS011;9947;57.722;12.012;2022-08-21T05:41:48;5.83;;;2.10;;
19599;SDS011;9947;57.722;12.012;2022-08-21T05:44:14;5.60;;;2.30;;
19599;SDS011;9947;57.722;12.012;2022-08-21T05:46:42;5.47;;;1.70;;
19599;SDS011;9947;57.722;12.012;2022-08-21T05:49:10;5.03;;;2.00;;
19599;SDS011;9947;57.722;12.012;2022-08-21T05:51:38;6.47;;;1.80;;
19599;SDS011;9947;57.722;12.012;2022-08-21T05:54:08;6.28;;;1.98;;
19599;SDS011;9947;57.722;12.012;2022-08-21T05:56:36;4.05;;;1.55;;
19599;SDS011;9947;57.722;12.012;2022-08-21T05:59:04;2.58;;;1.70;;
19599;SDS011;9947;57.722;12.012;2022-08-21T06:01:31;4.55;;;1.92;;
19599;SDS011;9947;57.722;12.012;2022-08-21T06:03:58;4.20;;;1.50;;
19599;SDS011;9947;57.722;12.012;2022-08-21T06:06:25;5.95;;;1.90;;
19599;SDS011;9947;57.722;12.012;2022-08-21T06:08:52;6.03;;;1.90;;
19599;SDS011;9947;57.722;12.012;2022-08-21T06:11:18;4.63;;;1.58;;
19599;SDS011;9947;57.722;12.012;2022-08-21T06:13:45;6.60;;;2.13;;
19599;SDS011;9947;57.722;12.012;2022-08-21T06:16:14;3.63;;;1.70;;
19599;SDS011;9947;57.722;12.012;2022-08-21T06:18:42;6.77;;;1.80;;
19599;SDS011;9947;57.722;12.012;2022-08-21T06:21:11;6.25;;;2.17;;
19599;SDS011;9947;57.722;12.012;2022-08-21T06:23:38;4.50;;;1.67;;
19599;SDS011;9947;57.722;12.012;2022-08-21T06:26:09;4.43;;;1.90;;
19599;SDS011;9947;57.722;12.012;2022-08-21T06:28:37;4.47;;;2.00;;
19599;SDS011;9947;57.722;12.012;2022-08-21T06:31:09;3.80;;;1.80;;
19599;SDS011;9947;57.722;12.012;2022-08-21T06:33:38;7.13;;;2.23;;
19599;SDS011;9947;57.722;12.012;2022-08-21T06:36:06;4.27;;;1.70;;
19599;SDS011;9947;57.722;12.012;2022-08-21T06:38:33;4.87;;;2.00;;
19599;SDS011;9947;57.722;12.012;2022-08-21T06:41:00;7.40;;;1.70;;
19599;SDS011;9947;57.722;12.012;2022-08-21T06:43:27;2.17;;;1.70;;
19599;SDS011;9947;57.722;12.012;2022-08-21T06:45:53;3.47;;;1.90;;
19599;SDS011;9947;57.722;12.012;2022-08-21T06:48:20;6.73;;;1.70;;
19599;SDS011;9947;57.722;12.012;2022-08-21T06:50:48;5.93;;;1.98;;
19599;SDS011;9947;57.722;12.012;2022-08-21T06:53:17;4.72;;;1.80;;
19599;SDS011;9947;57.722;12.012;2022-08-21T06:55:45;3.75;;;1.70;;
19599;SDS011;9947;57.722;12.012;2022-08-21T06:58:12;3.63;;;1.55;;
19599;SDS011;9947;57.722;12.012;2022-08-21T07:00:40;4.93;;;1.65;;
19599;SDS011;9947;57.722;12.012;2022-08-21T07:03:15;3.83;;;1.65;;
19599;SDS011;9947;57.722;12.012;2022-08-21T07:05:43;1.92;;;1.42;;
19599;SDS011;9947;57.722;12.012;2022-08-21T07:08:11;4.10;;;1.90;;
19599;SDS011;9947;57.722;12.012;2022-08-21T07:10:38;4.75;;;1.90;;
19599;SDS011;9947;57.722;12.012;2022-08-21T07:13:05;4.75;;;2.00;;
19599;SDS011;9947;57.722;12.012;2022-08-21T07:15:31;4.93;;;1.70;;
19599;SDS011;9947;57.722;12.012;2022-08-21T07:17:58;6.30;;;2.10;;
19599;SDS011;9947;57.722;12.012;2022-08-21T07:20:26;4.55;;;1.95;;
19599;SDS011;9947;57.722;12.012;2022-08-21T07:22:54;7.78;;;2.10;;
19599;SDS011;9947;57.722;12.012;2022-08-21T07:25:23;4.43;;;1.92;;
19599;SDS011;9947;57.722;12.012;2022-08-21T07:27:50;3.28;;;2.00;;
19599;SDS011;9947;57.722;12.012;2022-08-21T07:30:17;8.15;;;2.55;;
19599;SDS011;9947;57.722;12.012;2022-08-21T07:32:44;4.97;;;2.15;;
19599;SDS011;9947;57.722;12.012;2022-08-21T07:35:11;5.57;;;2.10;;
19599;SDS011;9947;57.722;12.012;2022-08-21T07:37:37;6.55;;;2.63;;
19599;SDS011;9947;57.722;12.012;2022-08-21T07:40:04;7.13;;;1.97;;
19599;SDS011;9947;57.722;12.012;2022-08-21T07:42:33;5.13;;;2.23;;
19599;SDS011;9947;57.722;12.012;2022-08-21T07:45:00;6.67;;;2.23;;
19599;SDS011;9947;57.722;12.012;2022-08-21T07:47:27;7.90;;;2.63;;
19599;SDS011;9947;57.722;12.012;2022-08-21T07:49:54;8.33;;;2.90;;
19599;SDS011;9947;57.722;12.012;2022-08-21T07:52:20;5.83;;;2.50;;
19599;SDS011;9947;57.722;12.012;2022-08-21T07:54:47;7.63;;;2.80;;
19599;SDS011;9947;57.722;12.012;2022-08-21T07:57:14;4.40;;;2.20;;
19599;SDS011;9947;57.722;12.012;2022-08-21T07:59:42;7.53;;;2.83;;
19599;SDS011;9947;57.722;12.012;2022-08-21T08:02:09;7.00;;;2.90;;
19599;SDS011;9947;57.722;12.012;2022-08-21T08:04:36;8.90;;;2.47;;
19599;SDS011;9947;57.722;12.012;2022-08-21T08:07:03;8.33;;;2.67;;
19599;SDS011;9947;57.722;12.012;2022-08-21T08:09:30;6.07;;;2.50;;
19599;SDS011;9947;57.722;12.012;2022-08-21T08:11:57;6.83;;;2.80;;
19599;SDS011;9947;57.722;12.012;2022-08-21T08:14:23;7.77;;;2.63;;
19599;SDS011;9947;57.722;12.012;2022-08-21T08:16:51;7.87;;;2.63;;
19599;SDS011;9947;57.722;12.012;2022-08-21T08:19:20;9.73;;;2.80;;
19599;SDS011;9947;57.722;12.012;2022-08-21T08:21:47;9.87;;;2.50;;
19599;SDS011;9947;57.722;12.012;2022-08-21T08:24:14;7.80;;;2.73;;
19599;SDS011;9947;57.722;12.012;2022-08-21T08:26:41;6.90;;;2.43;;
19599;SDS011;9947;57.722;12.012;2022-08-21T08:29:09;8.10;;;2.33;;
19599;SDS011;9947;57.722;12.012;2022-08-21T08:31:36;3.70;;;2.00;;
19599;SDS011;9947;57.722;12.012;2022-08-21T08:34:04;4.27;;;2.20;;
19599;SDS011;9947;57.722;12.012;2022-08-21T08:36:32;6.47;;;2.70;;
19599;SDS011;9947;57.722;12.012;2022-08-21T08:39:01;6.83;;;2.20;;
19599;SDS011;9947;57.722;12.012;2022-08-21T08:41:28;5.60;;;2.37;;
19599;SDS011;9947;57.722;12.012;2022-08-21T08:43:58;7.03;;;2.20;;
19599;SDS011;9947;57.722;12.012;2022-08-21T08:46:29;6.63;;;2.20;;
19599;SDS011;9947;57.722;12.012;2022-08-21T08:49:02;7.33;;;2.20;;
19599;SDS011;9947;57.722;12.012;2022-08-21T08:51:39;6.33;;;2.30;;
19599;SDS011;9947;57.722;12.012;2022-08-21T08:54:11;6.53;;;2.20;;
19599;SDS011;9947;57.722;12.012;2022-08-21T08:56:43;5.67;;;2.00;;
19599;SDS011;9947;57.722;12.012;2022-08-21T08:59:13;4.93;;;2.00;;
19599;SDS011;9947;57.722;12.012;2022-08-21T09:01:45;5.55;;;2.08;;
19599;SDS011;9947;57.722;12.012;2022-08-21T09:04:14;6.67;;;2.17;;
19599;SDS011;9947;57.722;12.012;2022-08-21T09:06:51;4.60;;;1.92;;
19599;SDS011;9947;57.722;12.012;2022-08-21T09:09:29;12.30;;;2.60;;
19599;SDS011;9947;57.722;12.012;2022-08-21T09:12:06;4.07;;;2.13;;
19599;SDS011;9947;57.722;12.012;2022-08-21T09:14:50;10.82;;;2.63;;
19599;SDS011;9947;57.722;12.012;2022-08-21T09:17:35;5.95;;;1.80;;
19599;SDS011;9947;57.722;12.012;2022-08-21T09:20:19;6.72;;;2.10;;
19599;SDS011;9947;57.722;12.012;2022-08-21T09:22:58;6.97;;;2.35;;
19599;SDS011;9947;57.722;12.012;2022-08-21T09:25:37;7.47;;;1.95;;
19599;SDS011;9947;57.722;12.012;2022-08-21T09:28:12;6.03;;;2.33;;
19599;SDS011;9947;57.722;12.012;2022-08-21T09:30:40;7.97;;;2.15;;
19599;SDS011;9947;57.722;12.012;2022-08-21T09:33:07;4.43;;;2.08;;
19599;SDS011;9947;57.722;12.012;2022-08-21T09:35:48;6.97;;;2.08;;
19599;SDS011;9947;57.722;12.012;2022-08-21T09:38:24;6.72;;;2.13;;
19599;SDS011;9947;57.722;12.012;2022-08-21T09:40:56;6.45;;;2.28;;
19599;SDS011;9947;57.722;12.012;2022-08-21T09:43:25;5.25;;;1.92;;
19599;SDS011;9947;57.722;12.012;2022-08-21T09:46:01;7.47;;;1.73;;
19599;SDS011;9947;57.722;12.012;2022-08-21T09:48:37;4.53;;;1.92;;
19599;SDS011;9947;57.722;12.012;2022-08-21T09:51:10;5.38;;;1.70;;
19599;SDS011;9947;57.722;12.012;2022-08-21T09:53:41;6.07;;;2.40;;
19599;SDS011;9947;57.722;12.012;2022-08-21T09:56:18;6.68;;;2.22;;
19599;SDS011;9947;57.722;12.012;2022-08-21T09:59:17;8.45;;;2.08;;
19599;SDS011;9947;57.722;12.012;2022-08-21T10:01:47;7.70;;;2.42;;
19599;SDS011;9947;57.722;12.012;2022-08-21T10:04:19;8.83;;;2.40;;
19599;SDS011;9947;57.722;12.012;2022-08-21T10:06:49;7.05;;;2.17;;
19599;SDS011;9947;57.722;12.012;2022-08-21T10:09:17;9.75;;;2.63;;
19599;SDS011;9947;57.722;12.012;2022-08-21T10:11:47;6.50;;;2.05;;
19599;SDS011;9947;57.722;12.012;2022-08-21T10:14:30;5.32;;;1.88;;
19599;SDS011;9947;57.722;12.012;2022-08-21T10:17:07;4.80;;;2.20;;
19599;SDS011;9947;57.722;12.012;2022-08-21T10:19:43;9.07;;;1.90;;
19599;SDS011;9947;57.722;12.012;2022-08-21T10:22:24;7.20;;;1.88;;
19599;SDS011;9947;57.722;12.012;2022-08-21T10:25:03;4.18;;;1.90;;
19599;SDS011;9947;57.722;12.012;2022-08-21T10:27:40;3.65;;;2.00;;
19599;SDS011;9947;57.722;12.012;2022-08-21T10:30:15;5.80;;;1.92;;
19599;SDS011;9947;57.722;12.012;2022-08-21T10:32:51;5.75;;;1.63;;
19599;SDS011;9947;57.722;12.012;2022-08-21T10:35:38;6.50;;;2.13;;
19599;SDS011;9947;57.722;12.012;2022-08-21T10:38:33;8.88;;;2.10;;
19599;SDS011;9947;57.722;12.012;2022-08-21T10:41:23;4.97;;;1.98;;
19599;SDS011;9947;57.722;12.012;2022-08-21T10:44:00;6.32;;;1.92;;
19599;SDS011;9947;57.722;12.012;2022-08-21T10:46:37;3.42;;;2.05;;
19599;SDS011;9947;57.722;12.012;2022-08-21T10:49:15;3.95;;;2.10;;
19599;SDS011;9947;57.722;12.012;2022-08-21T10:51:50;5.65;;;2.00;;
19599;SDS011;9947;57.722;12.012;2022-08-21T10:54:26;4.80;;;1.90;;
19599;SDS011;9947;57.722;12.012;2022-08-21T10:57:03;5.78;;;2.05;;
19599;SDS011;9947;57.722;12.012;2022-08-21T10:59:38;4.43;;;1.95;;
19599;SDS011;9947;57.722;12.012;2022-08-21T11:02:12;4.32;;;1.90;;
19599;SDS011;9947;57.722;12.012;2022-08-21T11:04:48;6.60;;;1.70;;
19599;SDS011;9947;57.722;12.012;2022-08-21T11:07:22;4.10;;;1.70;;
19599;SDS011;9947;57.722;12.012;2022-08-21T11:09:58;3.85;;;1.75;;
19599;SDS011;9947;57.722;12.012;2022-08-21T11:12:34;4.70;;;1.80;;
19599;SDS011;9947;57.722;12.012;2022-08-21T11:15:11;4.82;;;1.77;;
19599;SDS011;9947;57.722;12.012;2022-08-21T11:17:54;3.78;;;1.70;;
19599;SDS011;9947;57.722;12.012;2022-08-21T11:20:32;4.75;;;1.92;;
19599;SDS011;9947;57.722;12.012;2022-08-21T11:23:05;8.35;;;1.77;;
19599;SDS011;9947;57.722;12.012;2022-08-21T11:25:39;4.47;;;1.77;;
19599;SDS011;9947;57.722;12.012;2022-08-21T11:28:19;1.58;;;1.42;;
19599;SDS011;9947;57.722;12.012;2022-08-21T11:30:52;4.85;;;1.52;;
19599;SDS011;9947;57.722;12.012;2022-08-21T11:33:31;3.70;;;1.60;;
19599;SDS011;9947;57.722;12.012;2022-08-21T11:36:11;4.40;;;1.55;;
19599;SDS011;9947;57.722;12.012;2022-08-21T11:38:49;5.97;;;1.60;;
19599;SDS011;9947;57.722;12.012;2022-08-21T11:41:27;3.63;;;1.50;;
19599;SDS011;9947;57.722;12.012;2022-08-21T11:43:58;4.03;;;1.42;;
19599;SDS011;9947;57.722;12.012;2022-08-21T11:46:35;3.60;;;1.88;;
19599;SDS011;9947;57.722;12.012;2022-08-21T11:52:06;3.65;;;1.58;;
19599;SDS011;9947;57.722;12.012;2022-08-21T11:54:40;5.50;;;1.90;;
19599;SDS011;9947;57.722;12.012;2022-08-21T11:57:15;3.83;;;1.70;;
19599;SDS011;9947;57.722;12.012;2022-08-21T11:59:47;4.65;;;1.98;;
19599;SDS011;9947;57.722;12.012;2022-08-21T12:02:20;7.25;;;1.83;;
19599;SDS011;9947;57.722;12.012;2022-08-21T12:04:51;6.88;;;2.00;;
19599;SDS011;9947;57.722;12.012;2022-08-21T12:07:29;2.80;;;1.60;;
19599;SDS011;9947;57.722;12.012;2022-08-21T12:10:04;5.63;;;2.05;;
19599;SDS011;9947;57.722;12.012;2022-08-21T12:12:35;4.35;;;2.03;;
19599;SDS011;9947;57.722;12.012;2022-08-21T12:15:14;5.93;;;1.80;;
19599;SDS011;9947;57.722;12.012;2022-08-21T12:17:52;7.07;;;1.80;;
19599;SDS011;9947;57.722;12.012;2022-08-21T12:23:18;5.28;;;1.92;;
19599;SDS011;9947;57.722;12.012;2022-08-21T12:25:59;4.63;;;1.80;;
19599;SDS011;9947;57.722;12.012;2022-08-21T12:28:30;5.07;;;2.05;;
19599;SDS011;9947;57.722;12.012;2022-08-21T12:30:58;7.38;;;2.35;;
19599;SDS011;9947;57.722;12.012;2022-08-21T12:33:30;7.25;;;1.85;;
19599;SDS011;9947;57.722;12.012;2022-08-21T12:36:04;6.05;;;2.20;;
19599;SDS011;9947;57.722;12.012;2022-08-21T12:38:43;7.78;;;2.30;;
19599;SDS011;9947;57.722;12.012;2022-08-21T12:41:16;6.32;;;2.10;;
19599;SDS011;9947;57.722;12.012;2022-08-21T12:43:50;11.05;;;2.20;;
19599;SDS011;9947;57.722;12.012;2022-08-21T12:46:25;4.93;;;1.83;;
19599;SDS011;9947;57.722;12.012;2022-08-21T12:49:00;6.35;;;2.03;;
19599;SDS011;9947;57.722;12.012;2022-08-21T12:51:31;6.68;;;1.95;;
19599;SDS011;9947;57.722;12.012;2022-08-21T12:54:08;6.10;;;1.98;;
19599;SDS011;9947;57.722;12.012;2022-08-21T12:56:35;9.18;;;2.00;;
19599;SDS011;9947;57.722;12.012;2022-08-21T12:59:06;4.78;;;2.08;;
19599;SDS011;9947;57.722;12.012;2022-08-21T13:01:39;4.43;;;1.88;;
19599;SDS011;9947;57.722;12.012;2022-08-21T13:04:16;6.50;;;2.65;;
19599;SDS011;9947;57.722;12.012;2022-08-21T13:06:51;8.65;;;2.08;;
19599;SDS011;9947;57.722;12.012;2022-08-21T13:09:23;8.60;;;2.45;;
19599;SDS011;9947;57.722;12.012;2022-08-21T13:11:53;5.90;;;2.70;;
19599;SDS011;9947;57.722;12.012;2022-08-21T13:14:23;5.30;;;2.13;;
19599;SDS011;9947;57.722;12.012;2022-08-21T13:16:54;6.30;;;1.75;;
19599;SDS011;9947;57.722;12.012;2022-08-21T13:19:23;6.38;;;2.00;;
19599;SDS011;9947;57.722;12.012;2022-08-21T13:21:50;11.07;;;2.10;;
19599;SDS011;9947;57.722;12.012;2022-08-21T13:24:19;8.00;;;2.17;;
19599;SDS011;9947;57.722;12.012;2022-08-21T13:26:48;5.38;;;2.15;;
19599;SDS011;9947;57.722;12.012;2022-08-21T13:29:17;7.40;;;1.92;;
19599;SDS011;9947;57.722;12.012;2022-08-21T13:31:48;5.32;;;1.90;;
19599;SDS011;9947;57.722;12.012;2022-08-21T13:34:18;6.80;;;1.90;;
19599;SDS011;9947;57.722;12.012;2022-08-21T13:36:45;6.07;;;1.95;;
19599;SDS011;9947;57.722;12.012;2022-08-21T13:39:14;5.45;;;1.80;;
19599;SDS011;9947;57.722;12.012;2022-08-21T13:41:44;3.88;;;1.92;;
19599;SDS011;9947;57.722;12.012;2022-08-21T13:44:19;5.45;;;1.80;;
19599;SDS011;9947;57.722;12.012;2022-08-21T13:46:52;6.63;;;2.15;;
19599;SDS011;9947;57.722;12.012;2022-08-21T13:49:21;4.47;;;1.75;;
19599;SDS011;9947;57.722;12.012;2022-08-21T13:51:55;6.90;;;1.92;;
19599;SDS011;9947;57.722;12.012;2022-08-21T13:54:23;6.38;;;1.95;;
19599;SDS011;9947;57.722;12.012;2022-08-21T13:56:52;11.20;;;2.00;;
19599;SDS011;9947;57.722;12.012;2022-08-21T13:59:25;7.35;;;1.70;;
19599;SDS011;9947;57.722;12.012;2022-08-21T14:01:56;5.30;;;1.90;;
19599;SDS011;9947;57.722;12.012;2022-08-21T14:04:29;7.07;;;2.60;;
19599;SDS011;9947;57.722;12.012;2022-08-21T14:06:59;5.95;;;1.90;;
19599;SDS011;9947;57.722;12.012;2022-08-21T14:09:28;4.18;;;1.98;;
19599;SDS011;9947;57.722;12.012;2022-08-21T14:11:57;8.05;;;1.90;;
19599;SDS011;9947;57.722;12.012;2022-08-21T14:14:28;7.15;;;2.42;;
19599;SDS011;9947;57.722;12.012;2022-08-21T14:17:00;5.53;;;1.98;;
19599;SDS011;9947;57.722;12.012;2022-08-21T14:19:36;4.10;;;1.90;;
19599;SDS011;9947;57.722;12.012;2022-08-21T14:24:58;5.88;;;1.90;;
19599;SDS011;9947;57.722;12.012;2022-08-21T14:27:27;7.68;;;2.22;;
19599;SDS011;9947;57.722;12.012;2022-08-21T14:30:00;8.90;;;2.10;;
19599;SDS011;9947;57.722;12.012;2022-08-21T14:32:40;6.05;;;2.15;;
19599;SDS011;9947;57.722;12.012;2022-08-21T14:35:07;8.48;;;2.38;;
19599;SDS011;9947;57.722;12.012;2022-08-21T14:37:40;7.13;;;2.15;;
19599;SDS011;9947;57.722;12.012;2022-08-21T14:40:09;9.70;;;2.65;;
19599;SDS011;9947;57.722;12.012;2022-08-21T14:42:37;5.47;;;2.08;;
19599;SDS011;9947;57.722;12.012;2022-08-21T14:45:07;6.20;;;2.40;;
19599;SDS011;9947;57.722;12.012;2022-08-21T14:47:41;9.13;;;2.15;;
19599;SDS011;9947;57.722;12.012;2022-08-21T14:50:09;5.18;;;2.03;;
19599;SDS011;9947;57.722;12.012;2022-08-21T14:52:36;6.60;;;2.03;;
19599;SDS011;9947;57.722;12.012;2022-08-21T14:55:03;8.88;;;2.30;;
19599;SDS011;9947;57.722;12.012;2022-08-21T14:57:30;11.82;;;2.60;;
19599;SDS011;9947;57.722;12.012;2022-08-21T14:59:59;4.75;;;1.90;;
19599;SDS011;9947;57.722;12.012;2022-08-21T15:02:28;6.80;;;2.08;;
19599;SDS011;9947;57.722;12.012;2022-08-21T15:04:57;8.07;;;2.05;;
19599;SDS011;9947;57.722;12.012;2022-08-21T15:07:23;5.65;;;2.25;;
19599;SDS011;9947;57.722;12.012;2022-08-21T15:09:50;10.23;;;2.50;;
19599;SDS011;9947;57.722;12.012;2022-08-21T15:12:17;12.45;;;2.65;;